createdAt,value
2023-03-13T00:00:44.033Z,0.00
2023-03-13T00:01:44.068Z,0.00
2023-03-13T00:02:44.005Z,0.00
2023-03-13T00:03:43.988Z,0.00
2023-03-13T00:04:44.046Z,0.00
2023-03-13T00:05:43.970Z,0.00
2023-03-13T00:06:43.971Z,0.00
2023-03-13T00:07:43.946Z,0.00
2023-03-13T00:08:43.950Z,0.00
2023-03-13T00:09:43.926Z,0.00
2023-03-13T00:10:43.932Z,0.00
2023-03-13T00:11:43.906Z,0.00
2023-03-13T00:12:43.914Z,0.00
2023-03-13T00:13:43.884Z,0.00
2023-03-13T00:14:43.871Z,0.00
2023-03-13T00:15:43.889Z,0.00
2023-03-13T00:16:43.958Z,0.00
2023-03-13T00:17:43.851Z,0.00
2023-03-13T00:18:43.857Z,0.00
2023-03-13T00:19:43.811Z,0.00
2023-03-13T00:20:43.814Z,0.00
2023-03-13T00:21:43.805Z,0.00
2023-03-13T00:22:43.786Z,0.00
2023-03-13T00:23:43.777Z,0.00
2023-03-13T00:24:43.785Z,0.00
2023-03-13T00:25:43.750Z,0.00
2023-03-13T00:26:43.743Z,0.00
2023-03-13T00:27:52.935Z,0.00
2023-03-13T00:28:45.677Z,0.00
2023-03-13T00:29:43.723Z,0.00
2023-03-13T00:30:43.741Z,0.00
2023-03-13T00:31:43.794Z,0.00
2023-03-13T00:32:43.728Z,0.00
2023-03-13T00:33:43.676Z,0.00
2023-03-13T00:34:43.688Z,0.00
2023-03-13T00:35:43.672Z,0.00
2023-03-13T00:36:43.654Z,0.00
2023-03-13T00:37:43.668Z,0.00
2023-03-13T00:38:43.616Z,0.00
2023-03-13T00:39:43.608Z,0.00
2023-03-13T00:40:43.593Z,0.00
2023-03-13T00:41:43.604Z,0.00
2023-03-13T00:42:43.572Z,0.00
2023-03-13T00:43:43.572Z,0.00
2023-03-13T00:44:43.544Z,0.00
2023-03-13T00:45:43.593Z,0.00
2023-03-13T00:46:43.540Z,0.00
2023-03-13T00:47:43.555Z,0.00
2023-03-13T00:48:43.515Z,0.00
2023-03-13T00:49:43.489Z,0.00
2023-03-13T00:50:43.479Z,0.00
2023-03-13T00:51:43.492Z,0.00
2023-03-13T00:52:43.463Z,0.00
2023-03-13T00:53:43.478Z,0.00
2023-03-13T00:54:43.450Z,0.00
2023-03-13T00:55:43.430Z,0.00
2023-03-13T00:56:43.416Z,0.00
2023-03-13T00:57:43.406Z,0.00
2023-03-13T00:58:43.417Z,0.00
2023-03-13T00:59:43.391Z,0.00
2023-03-13T01:00:43.368Z,0.00
2023-03-13T01:01:43.360Z,0.00
2023-03-13T01:02:43.484Z,0.00
2023-03-13T01:03:43.399Z,0.00
2023-03-13T01:04:43.351Z,0.00
2023-03-13T01:05:43.345Z,0.00
2023-03-13T01:06:43.422Z,0.00
2023-03-13T01:07:43.315Z,0.00
2023-03-13T01:08:43.307Z,0.00
2023-03-13T01:09:43.305Z,0.00
2023-03-13T01:10:43.269Z,0.00
2023-03-13T01:11:43.255Z,0.00
2023-03-13T01:12:43.248Z,0.00
2023-03-13T01:13:43.273Z,0.00
2023-03-13T01:14:43.248Z,0.00
2023-03-13T01:15:43.284Z,0.00
2023-03-13T01:16:43.228Z,0.00
2023-03-13T01:17:43.218Z,0.00
2023-03-13T01:18:43.189Z,0.00
2023-03-13T01:19:43.193Z,0.00
2023-03-13T01:20:43.202Z,0.00
2023-03-13T01:21:43.180Z,0.00
2023-03-13T01:22:43.174Z,0.00
2023-03-13T01:23:43.180Z,0.00
2023-03-13T01:24:43.131Z,0.00
2023-03-13T01:25:43.122Z,0.00
2023-03-13T01:26:43.131Z,0.00
2023-03-13T01:27:43.128Z,0.00
2023-03-13T01:28:43.106Z,0.00
2023-03-13T01:29:43.087Z,0.00
2023-03-13T01:30:43.179Z,0.00
2023-03-13T01:31:43.116Z,0.00
2023-03-13T01:32:43.132Z,0.00
2023-03-13T01:33:43.053Z,0.00
2023-03-13T01:34:43.029Z,0.00
2023-03-13T01:35:43.144Z,0.00
2023-03-13T01:36:43.021Z,0.00
2023-03-13T01:37:52.451Z,0.00
2023-03-13T01:38:42.988Z,0.00
2023-03-13T01:39:42.980Z,0.00
2023-03-13T01:40:42.959Z,0.00
2023-03-13T01:41:42.965Z,0.00
2023-03-13T01:42:42.946Z,0.00
2023-03-13T01:43:42.920Z,0.00
2023-03-13T01:44:42.916Z,0.00
2023-03-13T01:45:42.904Z,0.00
2023-03-13T01:46:42.970Z,0.00
2023-03-13T01:47:42.904Z,0.00
2023-03-13T01:48:42.888Z,0.00
2023-03-13T01:49:42.860Z,0.00
2023-03-13T01:50:42.850Z,0.00
2023-03-13T01:51:42.884Z,0.00
2023-03-13T01:52:42.830Z,0.00
2023-03-13T01:53:42.825Z,0.00
2023-03-13T01:54:42.806Z,0.00
2023-03-13T01:55:42.806Z,0.00
2023-03-13T01:56:42.799Z,0.00
2023-03-13T01:57:42.825Z,0.00
2023-03-13T01:58:42.771Z,0.00
2023-03-13T01:59:42.776Z,0.00
2023-03-13T02:00:42.751Z,0.00
2023-03-13T02:01:42.843Z,0.00
2023-03-13T02:02:42.744Z,0.00
2023-03-13T02:03:42.705Z,0.00
2023-03-13T02:04:42.709Z,0.00
2023-03-13T02:05:42.717Z,0.00
2023-03-13T02:06:42.676Z,0.00
2023-03-13T02:07:42.706Z,0.00
2023-03-13T02:08:42.658Z,0.00
2023-03-13T02:09:42.704Z,0.00
2023-03-13T02:10:42.655Z,0.00
2023-03-13T02:11:42.631Z,0.00
2023-03-13T02:12:42.618Z,0.00
2023-03-13T02:13:42.630Z,0.00
2023-03-13T02:14:42.595Z,0.00
2023-03-13T02:15:42.661Z,0.00
2023-03-13T02:16:42.597Z,0.00
2023-03-13T02:17:42.560Z,0.00
2023-03-13T02:18:42.565Z,0.00
2023-03-13T02:19:42.558Z,0.00
2023-03-13T02:20:42.544Z,0.00
2023-03-13T02:21:42.514Z,0.00
2023-03-13T02:22:42.506Z,0.00
2023-03-13T02:23:42.534Z,0.00
2023-03-13T02:24:42.496Z,0.00
2023-03-13T02:25:42.482Z,0.00
2023-03-13T02:26:42.478Z,0.00
2023-03-13T02:27:42.465Z,0.00
2023-03-13T02:28:42.446Z,0.00
2023-03-13T02:29:42.433Z,0.00
2023-03-13T02:30:42.457Z,0.00
2023-03-13T02:31:42.478Z,0.00
2023-03-13T02:32:42.529Z,0.00
2023-03-13T02:33:42.386Z,0.00
2023-03-13T02:34:42.404Z,0.00
2023-03-13T02:35:42.443Z,0.00
2023-03-13T02:36:42.364Z,0.00
2023-03-13T02:37:42.344Z,0.00
2023-03-13T02:38:42.335Z,0.00
2023-03-13T02:39:42.356Z,0.00
2023-03-13T02:40:42.313Z,0.00
2023-03-13T02:41:42.329Z,0.00
2023-03-13T02:42:42.300Z,0.00
2023-03-13T02:43:42.292Z,0.00
2023-03-13T02:44:42.280Z,0.00
2023-03-13T02:45:42.293Z,0.00
2023-03-13T02:46:42.290Z,0.00
2023-03-13T02:47:42.244Z,0.00
2023-03-13T02:48:42.232Z,0.00
2023-03-13T02:49:42.234Z,0.00
2023-03-13T02:50:42.216Z,0.00
2023-03-13T02:51:42.215Z,0.00
2023-03-13T02:52:42.221Z,0.00
2023-03-13T02:53:42.182Z,0.00
2023-03-13T02:54:42.176Z,0.00
2023-03-13T02:55:42.195Z,0.00
2023-03-13T02:56:42.149Z,0.00
2023-03-13T02:57:42.157Z,0.00
2023-03-13T02:58:49.651Z,0.00
2023-03-13T02:59:42.125Z,0.00
2023-03-13T03:00:42.140Z,0.00
2023-03-13T03:01:42.109Z,0.00
2023-03-13T03:02:42.127Z,0.00
2023-03-13T03:03:42.209Z,0.00
2023-03-13T03:04:42.070Z,0.00
2023-03-13T03:05:42.065Z,0.00
2023-03-13T03:06:42.048Z,0.00
2023-03-13T03:07:42.032Z,0.00
2023-03-13T03:08:42.041Z,0.00
2023-03-13T03:09:42.010Z,0.00
2023-03-13T03:10:42.013Z,0.00
2023-03-13T03:11:42.036Z,0.00
2023-03-13T03:12:41.993Z,0.00
2023-03-13T03:13:42.005Z,0.00
2023-03-13T03:14:41.961Z,0.00
2023-03-13T03:15:41.982Z,0.00
2023-03-13T03:16:42.016Z,0.00
2023-03-13T03:17:41.937Z,0.00
2023-03-13T03:18:41.930Z,0.00
2023-03-13T03:19:41.928Z,0.00
2023-03-13T03:20:41.907Z,0.00
2023-03-13T03:21:41.899Z,0.00
2023-03-13T03:22:41.888Z,0.00
2023-03-13T03:23:41.871Z,0.00
2023-03-13T03:24:41.901Z,0.00
2023-03-13T03:25:41.844Z,0.00
2023-03-13T03:26:41.848Z,0.00
2023-03-13T03:27:41.832Z,0.00
2023-03-13T03:28:41.815Z,0.00
2023-03-13T03:29:41.802Z,0.00
2023-03-13T03:30:41.802Z,0.00
2023-03-13T03:31:41.872Z,0.00
2023-03-13T03:32:41.839Z,0.00
2023-03-13T03:33:41.758Z,0.00
2023-03-13T03:34:41.747Z,0.00
2023-03-13T03:35:41.803Z,0.00
2023-03-13T03:36:41.729Z,0.00
2023-03-13T03:37:41.733Z,0.00
2023-03-13T03:38:41.692Z,0.00
2023-03-13T03:39:41.681Z,0.00
2023-03-13T03:40:41.698Z,0.00
2023-03-13T03:41:41.681Z,0.00
2023-03-13T03:42:41.652Z,0.00
2023-03-13T03:43:41.664Z,0.00
2023-03-13T03:44:41.630Z,0.00
2023-03-13T03:45:41.698Z,0.00
2023-03-13T03:46:41.686Z,0.00
2023-03-13T03:47:41.638Z,0.00
2023-03-13T03:48:41.599Z,0.00
2023-03-13T03:49:41.588Z,0.00
2023-03-13T03:50:41.581Z,0.00
2023-03-13T03:51:41.593Z,0.00
2023-03-13T03:52:41.563Z,0.00
2023-03-13T03:53:41.543Z,0.00
2023-03-13T03:54:41.550Z,0.00
2023-03-13T03:55:41.518Z,0.00
2023-03-13T03:56:41.510Z,0.00
2023-03-13T03:57:41.524Z,0.00
2023-03-13T03:58:41.506Z,0.00
2023-03-13T03:59:41.505Z,0.00
2023-03-13T04:00:41.472Z,0.00
2023-03-13T04:01:41.453Z,0.00
2023-03-13T04:02:41.544Z,0.00
2023-03-13T04:03:41.482Z,0.00
2023-03-13T04:04:41.420Z,0.00
2023-03-13T04:05:41.434Z,0.00
2023-03-13T04:06:41.450Z,0.00
2023-03-13T04:07:41.396Z,0.00
2023-03-13T04:08:41.407Z,0.00
2023-03-13T04:09:41.377Z,0.00
2023-03-13T04:10:41.366Z,0.00
2023-03-13T04:11:41.351Z,0.00
2023-03-13T04:12:41.344Z,0.00
2023-03-13T04:13:41.327Z,0.00
2023-03-13T04:14:41.346Z,0.00
2023-03-13T04:15:41.329Z,0.00
2023-03-13T04:16:41.311Z,0.00
2023-03-13T04:17:41.285Z,0.00
2023-03-13T04:18:41.270Z,0.00
2023-03-13T04:19:41.274Z,0.00
2023-03-13T04:20:41.282Z,0.00
2023-03-13T04:21:41.253Z,0.00
2023-03-13T04:22:41.237Z,0.00
2023-03-13T04:23:41.248Z,0.00
2023-03-13T04:24:41.208Z,0.00
2023-03-13T04:25:41.234Z,0.00
2023-03-13T04:26:41.203Z,0.00
2023-03-13T04:27:41.176Z,0.00
2023-03-13T04:28:41.185Z,0.00
2023-03-13T04:29:41.158Z,0.00
2023-03-13T04:30:41.255Z,0.00
2023-03-13T04:31:41.171Z,0.00
2023-03-13T04:32:41.176Z,0.00
2023-03-13T04:33:41.113Z,0.00
2023-03-13T04:34:41.106Z,0.00
2023-03-13T04:35:41.206Z,0.00
2023-03-13T04:36:41.094Z,0.00
2023-03-13T04:37:41.087Z,0.00
2023-03-13T04:38:41.058Z,0.00
2023-03-13T04:39:41.067Z,0.00
2023-03-13T04:40:41.057Z,0.00
2023-03-13T04:41:41.037Z,0.00
2023-03-13T04:42:41.031Z,0.00
2023-03-13T04:43:41.005Z,0.00
2023-03-13T04:44:43.443Z,0.00
2023-03-13T04:45:40.989Z,0.00
2023-03-13T04:46:40.998Z,0.00
2023-03-13T04:47:41.034Z,0.00
2023-03-13T04:48:40.963Z,0.00
2023-03-13T04:49:40.946Z,0.00
2023-03-13T04:50:40.939Z,0.00
2023-03-13T04:51:40.932Z,0.00
2023-03-13T04:52:40.918Z,0.00
2023-03-13T04:53:40.945Z,0.00
2023-03-13T04:54:41.509Z,0.00
2023-03-13T04:55:41.521Z,0.00
2023-03-13T04:56:44.357Z,0.00
2023-03-13T04:57:40.871Z,0.00
2023-03-13T04:58:40.844Z,0.00
2023-03-13T04:59:40.856Z,0.00
2023-03-13T05:00:40.864Z,0.00
2023-03-13T05:01:40.876Z,0.00
2023-03-13T05:02:40.879Z,0.00
2023-03-13T05:03:40.886Z,0.00
2023-03-13T05:04:40.805Z,0.00
2023-03-13T05:05:40.782Z,0.00
2023-03-13T05:06:40.767Z,0.00
2023-03-13T05:07:40.858Z,0.00
2023-03-13T05:08:40.782Z,0.00
2023-03-13T05:09:40.734Z,0.00
2023-03-13T05:10:40.739Z,0.00
2023-03-13T05:11:40.722Z,0.00
2023-03-13T05:12:40.704Z,0.00
2023-03-13T05:13:40.694Z,0.00
2023-03-13T05:14:40.699Z,0.00
2023-03-13T05:15:40.737Z,0.00
2023-03-13T05:16:40.666Z,0.00
2023-03-13T05:17:40.651Z,0.00
2023-03-13T05:18:40.650Z,0.00
2023-03-13T05:19:40.656Z,0.00
2023-03-13T05:20:40.642Z,0.00
2023-03-13T05:21:40.627Z,0.00
2023-03-13T05:22:40.589Z,0.00
2023-03-13T05:23:40.591Z,0.00
2023-03-13T05:24:41.961Z,0.00
2023-03-13T05:25:40.600Z,0.00
2023-03-13T05:26:40.585Z,0.00
2023-03-13T05:27:40.553Z,0.00
2023-03-13T05:28:40.543Z,0.00
2023-03-13T05:29:40.529Z,0.00
2023-03-13T05:30:40.602Z,0.00
2023-03-13T05:31:40.512Z,0.00
2023-03-13T05:32:40.567Z,0.00
2023-03-13T05:33:40.496Z,0.00
2023-03-13T05:34:40.471Z,0.00
2023-03-13T05:35:40.500Z,0.00
2023-03-13T05:36:40.457Z,0.00
2023-03-13T05:37:41.409Z,0.00
2023-03-13T05:38:40.435Z,0.00
2023-03-13T05:39:40.423Z,0.00
2023-03-13T05:40:40.462Z,0.00
2023-03-13T05:41:40.394Z,0.00
2023-03-13T05:42:40.573Z,0.00
2023-03-13T05:43:40.367Z,0.00
2023-03-13T05:44:40.359Z,0.00
2023-03-13T05:45:40.347Z,0.00
2023-03-13T05:46:40.408Z,0.00
2023-03-13T05:47:40.347Z,5.62
2023-03-13T05:48:40.360Z,5.62
2023-03-13T05:49:40.314Z,5.62
2023-03-13T05:50:40.305Z,5.62
2023-03-13T05:51:40.304Z,5.62
2023-03-13T05:52:40.280Z,5.62
2023-03-13T05:53:40.269Z,5.62
2023-03-13T05:54:40.271Z,5.62
2023-03-13T05:55:40.234Z,5.62
2023-03-13T05:56:40.228Z,5.62
2023-03-13T05:57:40.221Z,5.62
2023-03-13T05:58:40.204Z,5.62
2023-03-13T05:59:40.211Z,5.62
2023-03-13T06:00:40.189Z,5.62
2023-03-13T06:01:40.176Z,5.62
2023-03-13T06:02:40.163Z,5.62
2023-03-13T06:03:40.464Z,11.25
2023-03-13T06:04:40.270Z,11.25
2023-03-13T06:05:40.122Z,11.25
2023-03-13T06:06:40.141Z,11.25
2023-03-13T06:07:40.123Z,11.25
2023-03-13T06:08:40.111Z,11.25
2023-03-13T06:09:40.096Z,11.25
2023-03-13T06:10:40.105Z,11.25
2023-03-13T06:11:40.069Z,11.25
2023-03-13T06:12:40.055Z,11.25
2023-03-13T06:13:40.052Z,11.25
2023-03-13T06:14:40.034Z,11.25
2023-03-13T06:15:40.027Z,11.25
2023-03-13T06:16:40.007Z,11.25
2023-03-13T06:17:40.005Z,11.25
2023-03-13T06:18:39.979Z,11.25
2023-03-13T06:19:39.975Z,11.25
2023-03-13T06:20:42.234Z,11.25
2023-03-13T06:21:39.960Z,11.25
2023-03-13T06:22:39.944Z,11.25
2023-03-13T06:23:39.962Z,11.25
2023-03-13T06:24:39.917Z,11.25
2023-03-13T06:25:39.924Z,11.25
2023-03-13T06:26:39.901Z,11.25
2023-03-13T06:27:39.892Z,11.25
2023-03-13T06:28:39.877Z,11.25
2023-03-13T06:29:39.869Z,11.25
2023-03-13T06:30:39.878Z,11.25
2023-03-13T06:31:40.082Z,11.25
2023-03-13T06:32:40.019Z,11.25
2023-03-13T06:33:39.819Z,11.25
2023-03-13T06:34:40.512Z,11.25
2023-03-13T06:35:54.737Z,16.88
2023-03-13T06:36:40.919Z,16.88
2023-03-13T06:37:39.789Z,22.50
2023-03-13T06:38:39.763Z,22.50
2023-03-13T06:39:39.912Z,22.50
2023-03-13T06:40:39.742Z,28.12
2023-03-13T06:41:39.771Z,28.12
2023-03-13T06:42:39.773Z,28.12
2023-03-13T06:43:39.713Z,28.12
2023-03-13T06:44:39.706Z,28.12
2023-03-13T06:45:39.695Z,28.12
2023-03-13T06:46:39.755Z,33.75
2023-03-13T06:47:39.670Z,33.75
2023-03-13T06:48:39.655Z,33.75
2023-03-13T06:49:39.662Z,33.75
2023-03-13T06:50:39.645Z,28.12
2023-03-13T06:51:39.626Z,28.12
2023-03-13T06:52:43.879Z,28.12
2023-03-13T06:53:39.604Z,28.12
2023-03-13T06:54:39.629Z,33.75
2023-03-13T06:55:39.605Z,33.75
2023-03-13T06:56:39.605Z,33.75
2023-03-13T06:57:39.561Z,33.75
2023-03-13T06:58:39.562Z,33.75
2023-03-13T06:59:39.543Z,39.38
2023-03-13T07:00:39.561Z,39.38
2023-03-13T07:01:39.523Z,39.38
2023-03-13T07:02:39.509Z,45.00
2023-03-13T07:03:39.592Z,50.62
2023-03-13T07:04:39.497Z,50.62
2023-03-13T07:05:39.476Z,50.62
2023-03-13T07:06:39.485Z,50.62
2023-03-13T07:07:39.475Z,50.62
2023-03-13T07:08:39.440Z,50.62
2023-03-13T07:09:39.486Z,45.00
2023-03-13T07:10:40.034Z,45.00
2023-03-13T07:11:39.422Z,45.00
2023-03-13T07:12:39.398Z,50.62
2023-03-13T07:13:39.386Z,56.25
2023-03-13T07:14:39.372Z,56.25
2023-03-13T07:15:39.405Z,56.25
2023-03-13T07:16:39.393Z,61.88
2023-03-13T07:17:39.412Z,67.50
2023-03-13T07:18:39.342Z,67.50
2023-03-13T07:19:39.328Z,61.88
2023-03-13T07:20:39.444Z,50.62
2023-03-13T07:21:47.061Z,45.00
2023-03-13T07:22:39.297Z,39.38
2023-03-13T07:23:39.277Z,33.75
2023-03-13T07:24:39.352Z,33.75
2023-03-13T07:25:39.281Z,33.75
2023-03-13T07:26:39.412Z,39.38
2023-03-13T07:27:39.280Z,45.00
2023-03-13T07:28:39.230Z,39.38
2023-03-13T07:29:39.221Z,33.75
2023-03-13T07:30:39.202Z,39.38
2023-03-13T07:31:39.223Z,39.38
2023-03-13T07:32:39.266Z,33.75
2023-03-13T07:33:39.177Z,33.75
2023-03-13T07:34:39.166Z,33.75
2023-03-13T07:35:40.260Z,56.25
2023-03-13T07:36:39.321Z,50.62
2023-03-13T07:37:48.122Z,56.25
2023-03-13T07:38:39.122Z,67.50
2023-03-13T07:39:39.113Z,73.12
2023-03-13T07:40:39.093Z,67.50
2023-03-13T07:41:40.112Z,45.00
2023-03-13T07:42:39.078Z,50.62
2023-03-13T07:43:39.094Z,50.62
2023-03-13T07:44:39.057Z,45.00
2023-03-13T07:45:39.135Z,50.62
2023-03-13T07:46:39.033Z,56.25
2023-03-13T07:47:39.025Z,67.50
2023-03-13T07:48:39.027Z,67.50
2023-03-13T07:49:39.006Z,67.50
2023-03-13T07:50:39.103Z,67.50
2023-03-13T07:51:43.842Z,73.12
2023-03-13T07:52:38.969Z,73.12
2023-03-13T07:53:39.082Z,73.12
2023-03-13T07:54:38.936Z,84.38
2023-03-13T07:55:38.945Z,84.38
2023-03-13T07:56:38.927Z,84.38
2023-03-13T07:57:38.928Z,84.38
2023-03-13T07:58:38.930Z,78.75
2023-03-13T07:59:38.916Z,67.50
2023-03-13T08:00:38.884Z,61.88
2023-03-13T08:01:38.866Z,50.62
2023-03-13T08:02:38.917Z,50.62
2023-03-13T08:03:38.923Z,50.62
2023-03-13T08:04:38.854Z,56.25
2023-03-13T08:05:38.826Z,50.62
2023-03-13T08:06:38.810Z,39.38
2023-03-13T08:07:38.799Z,39.38
2023-03-13T08:08:38.793Z,39.38
2023-03-13T08:09:38.804Z,50.62
2023-03-13T08:10:38.789Z,61.88
2023-03-13T08:11:38.763Z,56.25
2023-03-13T08:12:38.749Z,67.50
2023-03-13T08:13:38.730Z,39.38
2023-03-13T08:14:38.758Z,39.38
2023-03-13T08:15:38.731Z,33.75
2023-03-13T08:16:38.730Z,33.75
2023-03-13T08:17:38.691Z,45.00
2023-03-13T08:18:38.674Z,67.50
2023-03-13T08:19:38.685Z,50.62
2023-03-13T08:20:38.701Z,45.00
2023-03-13T08:21:38.653Z,39.38
2023-03-13T08:22:38.636Z,50.62
2023-03-13T08:23:38.638Z,50.62
2023-03-13T08:24:38.611Z,56.25
2023-03-13T08:25:38.610Z,56.25
2023-03-13T08:26:38.618Z,50.62
2023-03-13T08:27:38.597Z,67.50
2023-03-13T08:28:38.563Z,56.25
2023-03-13T08:29:38.582Z,73.12
2023-03-13T08:30:38.602Z,78.75
2023-03-13T08:31:38.609Z,73.12
2023-03-13T08:32:38.647Z,56.25
2023-03-13T08:33:38.515Z,50.62
2023-03-13T08:34:38.513Z,39.38
2023-03-13T08:35:38.543Z,39.38
2023-03-13T08:36:38.488Z,22.50
2023-03-13T08:37:38.489Z,28.12
2023-03-13T08:38:38.456Z,45.00
2023-03-13T08:39:38.450Z,45.00
2023-03-13T08:40:38.448Z,50.62
2023-03-13T08:41:38.464Z,50.62
2023-03-13T08:42:38.409Z,56.25
2023-03-13T08:43:38.398Z,56.25
2023-03-13T08:44:38.398Z,61.88
2023-03-13T08:45:38.379Z,67.50
2023-03-13T08:46:38.518Z,56.25
2023-03-13T08:47:38.404Z,50.62
2023-03-13T08:48:38.380Z,56.25
2023-03-13T08:49:38.353Z,56.25
2023-03-13T08:50:38.329Z,50.62
2023-03-13T08:51:38.349Z,45.00
2023-03-13T08:52:38.343Z,45.00
2023-03-13T08:53:38.305Z,45.00
2023-03-13T08:54:38.295Z,39.38
2023-03-13T08:55:38.289Z,39.38
2023-03-13T08:56:38.269Z,39.38
2023-03-13T08:57:38.257Z,50.62
2023-03-13T08:58:38.260Z,45.00
2023-03-13T08:59:38.231Z,45.00
2023-03-13T09:00:38.239Z,45.00
2023-03-13T09:01:38.220Z,45.00
2023-03-13T09:02:38.273Z,50.62
2023-03-13T09:03:38.300Z,45.00
2023-03-13T09:04:38.178Z,56.25
2023-03-13T09:05:53.140Z,56.25
2023-03-13T09:06:39.185Z,50.62
2023-03-13T09:07:38.148Z,45.00
2023-03-13T09:08:38.143Z,67.50
2023-03-13T09:09:38.153Z,67.50
2023-03-13T09:10:38.124Z,56.25
2023-03-13T09:11:38.113Z,61.88
2023-03-13T09:12:38.093Z,61.88
2023-03-13T09:13:38.082Z,61.88
2023-03-13T09:14:38.101Z,61.88
2023-03-13T09:15:38.116Z,61.88
2023-03-13T09:16:38.065Z,56.25
2023-03-13T09:17:38.056Z,50.62
2023-03-13T09:18:38.035Z,50.62
2023-03-13T09:19:40.167Z,50.62
2023-03-13T09:20:39.026Z,45.00
2023-03-13T09:21:37.996Z,50.62
2023-03-13T09:22:37.997Z,50.62
2023-03-13T09:23:37.976Z,39.38
2023-03-13T09:24:37.985Z,39.38
2023-03-13T09:25:37.980Z,39.38
2023-03-13T09:26:38.709Z,45.00
2023-03-13T09:27:37.943Z,50.62
2023-03-13T09:28:37.913Z,61.88
2023-03-13T09:29:37.924Z,56.25
2023-03-13T09:30:37.901Z,50.62
2023-03-13T09:31:37.934Z,45.00
2023-03-13T09:32:37.949Z,39.38
2023-03-13T09:33:37.888Z,33.75
2023-03-13T09:34:37.873Z,33.75
2023-03-13T09:35:37.902Z,28.12
2023-03-13T09:36:37.839Z,28.12
2023-03-13T09:37:37.825Z,33.75
2023-03-13T09:38:37.833Z,39.38
2023-03-13T09:39:37.806Z,39.38
2023-03-13T09:40:37.792Z,33.75
2023-03-13T09:41:37.785Z,28.12
2023-03-13T09:42:37.767Z,28.12
2023-03-13T09:43:37.776Z,33.75
2023-03-13T09:44:37.745Z,45.00
2023-03-13T09:45:37.736Z,50.62
2023-03-13T09:46:37.775Z,56.25
2023-03-13T09:47:37.723Z,50.62
2023-03-13T09:48:37.737Z,45.00
2023-03-13T09:49:37.700Z,45.00
2023-03-13T09:50:37.695Z,45.00
2023-03-13T09:51:37.687Z,45.00
2023-03-13T09:52:37.666Z,45.00
2023-03-13T09:53:37.662Z,50.62
2023-03-13T09:54:40.667Z,56.25
2023-03-13T09:55:37.646Z,56.25
2023-03-13T09:56:37.614Z,56.25
2023-03-13T09:57:37.609Z,45.00
2023-03-13T09:58:37.594Z,50.62
2023-03-13T09:59:37.589Z,50.62
2023-03-13T10:00:37.593Z,50.62
2023-03-13T10:01:37.588Z,45.00
2023-03-13T10:02:37.553Z,50.62
2023-03-13T10:03:37.550Z,45.00
2023-03-13T10:04:41.139Z,45.00
2023-03-13T10:05:37.510Z,45.00
2023-03-13T10:06:37.498Z,45.00
2023-03-13T10:07:37.518Z,39.38
2023-03-13T10:08:37.501Z,33.75
2023-03-13T10:09:37.472Z,33.75
2023-03-13T10:10:37.466Z,45.00
2023-03-13T10:11:37.452Z,50.62
2023-03-13T10:12:37.454Z,56.25
2023-03-13T10:13:37.430Z,56.25
2023-03-13T10:14:37.418Z,56.25
2023-03-13T10:15:37.407Z,50.62
2023-03-13T10:16:37.556Z,50.62
2023-03-13T10:17:37.393Z,50.62
2023-03-13T10:18:37.378Z,56.25
2023-03-13T10:19:37.363Z,84.38
2023-03-13T10:20:37.348Z,95.62
2023-03-13T10:21:37.340Z,106.88
2023-03-13T10:22:37.353Z,101.25
2023-03-13T10:23:37.525Z,129.38
2023-03-13T10:24:37.363Z,112.50
2023-03-13T10:25:37.287Z,106.88
2023-03-13T10:26:37.289Z,118.12
2023-03-13T10:27:37.281Z,112.50
2023-03-13T10:28:37.266Z,112.50
2023-03-13T10:29:37.251Z,140.62
2023-03-13T10:30:37.260Z,146.25
2023-03-13T10:31:37.349Z,140.62
2023-03-13T10:32:37.243Z,129.38
2023-03-13T10:33:37.212Z,123.75
2023-03-13T10:34:37.201Z,112.50
2023-03-13T10:35:37.254Z,106.88
2023-03-13T10:36:37.188Z,112.50
2023-03-13T10:37:37.165Z,112.50
2023-03-13T10:38:37.160Z,118.12
2023-03-13T10:39:37.158Z,129.38
2023-03-13T10:40:37.145Z,163.12
2023-03-13T10:41:37.151Z,191.25
2023-03-13T10:42:37.118Z,213.75
2023-03-13T10:43:37.096Z,174.38
2023-03-13T10:44:37.110Z,129.38
2023-03-13T10:45:37.094Z,112.50
2023-03-13T10:46:37.141Z,140.62
2023-03-13T10:47:37.109Z,140.62
2023-03-13T10:48:37.063Z,140.62
2023-03-13T10:49:37.037Z,157.50
2023-03-13T10:50:37.023Z,185.62
2023-03-13T10:51:37.012Z,208.12
2023-03-13T10:52:37.010Z,247.50
2023-03-13T10:53:37.016Z,247.50
2023-03-13T10:54:36.992Z,275.62
2023-03-13T10:55:37.006Z,286.88
2023-03-13T10:56:36.964Z,292.50
2023-03-13T10:57:36.981Z,264.38
2023-03-13T10:58:36.967Z,253.12
2023-03-13T10:59:36.927Z,286.88
2023-03-13T11:00:36.937Z,270.00
2023-03-13T11:01:36.923Z,241.88
2023-03-13T11:02:37.061Z,230.62
2023-03-13T11:03:37.014Z,202.50
2023-03-13T11:04:36.872Z,202.50
2023-03-13T11:05:36.882Z,230.62
2023-03-13T11:06:36.892Z,208.12
2023-03-13T11:07:36.845Z,219.38
2023-03-13T11:08:36.886Z,213.75
2023-03-13T11:09:36.829Z,208.12
2023-03-13T11:10:36.835Z,208.12
2023-03-13T11:11:36.821Z,236.25
2023-03-13T11:12:36.800Z,281.25
2023-03-13T11:13:37.966Z,286.88
2023-03-13T11:14:36.807Z,315.00
2023-03-13T11:15:36.782Z,286.88
2023-03-13T11:16:36.849Z,326.25
2023-03-13T11:17:36.745Z,331.88
2023-03-13T11:18:36.731Z,309.38
2023-03-13T11:19:36.723Z,309.38
2023-03-13T11:20:36.694Z,298.12
2023-03-13T11:21:36.726Z,275.62
2023-03-13T11:22:36.690Z,264.38
2023-03-13T11:23:36.679Z,275.62
2023-03-13T11:24:36.657Z,258.75
2023-03-13T11:25:36.652Z,270.00
2023-03-13T11:26:36.632Z,270.00
2023-03-13T11:27:36.744Z,298.12
2023-03-13T11:28:36.611Z,281.25
2023-03-13T11:29:36.661Z,253.12
2023-03-13T11:30:36.599Z,225.00
2023-03-13T11:31:36.599Z,230.62
2023-03-13T11:32:36.678Z,230.62
2023-03-13T11:33:36.572Z,230.62
2023-03-13T11:34:36.551Z,225.00
2023-03-13T11:35:36.630Z,219.38
2023-03-13T11:36:36.553Z,213.75
2023-03-13T11:37:36.538Z,208.12
2023-03-13T11:38:36.527Z,213.75
2023-03-13T11:39:36.515Z,213.75
2023-03-13T11:40:36.487Z,219.38
2023-03-13T11:41:36.591Z,219.38
2023-03-13T11:42:36.470Z,219.38
2023-03-13T11:43:36.494Z,219.38
2023-03-13T11:44:36.460Z,225.00
2023-03-13T11:45:36.441Z,219.38
2023-03-13T11:46:36.620Z,213.75
2023-03-13T11:47:36.409Z,213.75
2023-03-13T11:48:36.439Z,213.75
2023-03-13T11:49:36.862Z,208.12
2023-03-13T11:50:36.377Z,202.50
2023-03-13T11:51:36.500Z,191.25
2023-03-13T11:52:36.359Z,185.62
2023-03-13T11:53:36.355Z,180.00
2023-03-13T11:54:36.367Z,163.12
2023-03-13T11:55:36.326Z,157.50
2023-03-13T11:56:36.314Z,146.25
2023-03-13T11:57:36.299Z,146.25
2023-03-13T11:58:36.298Z,146.25
2023-03-13T11:59:36.349Z,146.25
2023-03-13T12:00:36.300Z,146.25
2023-03-13T12:01:36.252Z,151.88
2023-03-13T12:02:36.329Z,163.12
2023-03-13T12:03:36.360Z,174.38
2023-03-13T12:04:36.224Z,185.62
2023-03-13T12:05:36.271Z,185.62
2023-03-13T12:06:36.202Z,174.38
2023-03-13T12:07:36.200Z,180.00
2023-03-13T12:08:36.215Z,174.38
2023-03-13T12:09:36.171Z,185.62
2023-03-13T12:10:36.167Z,196.88
2023-03-13T12:11:36.152Z,230.62
2023-03-13T12:12:36.288Z,230.62
2023-03-13T12:13:36.237Z,264.38
2023-03-13T12:14:36.161Z,253.12
2023-03-13T12:15:36.329Z,225.00
2023-03-13T12:16:36.122Z,241.88
2023-03-13T12:17:36.287Z,202.50
2023-03-13T12:18:36.183Z,174.38
2023-03-13T12:19:36.067Z,157.50
2023-03-13T12:20:36.180Z,157.50
2023-03-13T12:21:36.089Z,180.00
2023-03-13T12:22:36.047Z,180.00
2023-03-13T12:23:36.120Z,196.88
2023-03-13T12:24:36.007Z,241.88
2023-03-13T12:25:39.099Z,236.25
2023-03-13T12:26:36.032Z,202.50
2023-03-13T12:27:35.978Z,163.12
2023-03-13T12:28:36.008Z,129.38
2023-03-13T12:29:35.979Z,140.62
2023-03-13T12:30:36.074Z,157.50
2023-03-13T12:31:35.954Z,230.62
2023-03-13T12:32:35.982Z,275.62
2023-03-13T12:33:35.922Z,275.62
2023-03-13T12:34:35.900Z,264.38
2023-03-13T12:35:35.906Z,264.38
2023-03-13T12:36:35.884Z,230.62
2023-03-13T12:37:35.882Z,180.00
2023-03-13T12:38:35.901Z,168.75
2023-03-13T12:39:35.877Z,168.75
2023-03-13T12:40:35.841Z,196.88
2023-03-13T12:41:35.833Z,191.25
2023-03-13T12:42:35.836Z,174.38
2023-03-13T12:43:35.816Z,163.12
2023-03-13T12:44:35.817Z,168.75
2023-03-13T12:45:36.015Z,219.38
2023-03-13T12:46:35.910Z,241.88
2023-03-13T12:47:35.793Z,202.50
2023-03-13T12:48:35.828Z,230.62
2023-03-13T12:49:35.795Z,247.50
2023-03-13T12:50:35.771Z,241.88
2023-03-13T12:51:35.737Z,281.25
2023-03-13T12:52:35.717Z,264.38
2023-03-13T12:53:35.836Z,270.00
2023-03-13T12:54:35.708Z,270.00
2023-03-13T12:55:35.704Z,264.38
2023-03-13T12:56:35.686Z,146.25
2023-03-13T12:57:35.749Z,202.50
2023-03-13T12:58:35.651Z,174.38
2023-03-13T12:59:35.653Z,180.00